Time;durP1;ratioP1;P1;durP2;ratioP2;P2;SDS_P1;SDS_P2;PMS_P1;PMS_P2;Temp;Humidity;BMP_temperature;BMP_pressure;BME280_temperature;BME280_humidity;BME280_pressure;Samples;Min_cycle;Max_cycle;Signal;HPM_P1;HPM_P2
2021/06/04 00:02:33;;;;;;;17.68;11.70;;;;;;;10.52;67.64;100734.31;262670;1107;102343;-76
2021/06/04 00:07:39;;;;;;;18.40;10.88;;;;;;;10.45;67.47;100732.48;261318;1107;105595;-76
2021/06/04 00:12:44;;;;;;;;;;;;;;;10.44;67.85;100728.17;262638;1107;101400;-74
2021/06/04 00:17:50;;;;;;;17.78;10.38;;;;;;;10.40;67.70;100732.28;261848;1107;103100;-76
2021/06/04 00:22:54;;;;;;;24.08;15.68;;;;;;;10.39;68.16;100730.67;261815;1107;103054;-77
2021/06/04 00:28:00;;;;;;;17.30;14.58;;;;;;;10.49;67.80;100729.40;260729;1107;102968;-75
2021/06/04 00:33:05;;;;;;;25.98;15.60;;;;;;;10.45;68.26;100726.33;260555;1107;103014;-75
2021/06/04 00:38:09;;;;;;;15.15;11.98;;;;;;;10.37;68.48;100732.73;260355;1107;102976;-74
2021/06/04 00:43:14;;;;;;;20.95;11.63;;;;;;;10.28;68.22;100727.82;260575;1106;102911;-75
2021/06/04 00:48:19;;;;;;;19.90;14.65;;;;;;;10.29;68.79;100726.80;260089;1107;103046;-75
2021/06/04 00:53:25;;;;;;;27.23;14.05;;;;;;;10.33;68.63;100726.17;259937;1107;102996;-76
2021/06/04 00:58:43;;;;;;;18.93;13.50;;;;;;;10.35;69.01;100729.45;260278;1107;102943;-76
2021/06/04 01:03:54;;;;;;;17.88;12.88;;;;;;;10.28;68.39;100719.83;260682;1107;103065;-76
2021/06/04 01:09:32;;;;;;;17.60;13.50;;;;;;;10.20;68.99;100726.19;260747;1107;103011;-75
2021/06/04 01:14:37;;;;;;;13.60;12.13;;;;;;;10.23;69.45;100717.78;259712;1107;102989;-76
2021/06/04 01:20:05;;;;;;;18.40;14.38;;;;;;;10.21;69.02;100711.02;260041;1107;103136;-75
2021/06/04 01:25:35;;;;;;;17.58;11.90;;;;;;;10.04;68.78;100708.78;260257;1107;103120;-76
2021/06/04 01:30:53;;;;;;;18.73;12.57;;;;;;;9.91;69.16;100707.97;260345;1107;102972;-75
2021/06/04 01:36:01;;;;;;;12.13;10.87;;;;;;;9.83;69.39;100706.33;260825;1107;102972;-75
2021/06/04 01:41:10;;;;;;;21.20;14.10;;;;;;;9.79;69.18;100707.76;260070;1107;103036;-75
2021/06/04 01:46:29;;;;;;;19.23;13.35;;;;;;;9.76;69.36;100705.53;260945;1107;103094;-76
2021/06/04 01:51:46;;;;;;;34.80;14.35;;;;;;;9.69;69.07;100712.70;261165;1107;102956;-75
2021/06/04 01:57:01;;;;;;;33.33;13.00;;;;;;;9.60;69.30;100701.42;260303;1106;102975;-75
2021/06/04 02:02:09;;;;;;;15.85;9.95;;;;;;;9.50;69.34;100708.98;262601;1107;101280;-76
2021/06/04 02:07:19;;;;;;;25.58;13.48;;;;;;;9.45;69.16;100706.14;262690;1107;101781;-75
2021/06/04 02:12:25;;;;;;;25.18;13.95;;;;;;;9.43;69.67;100711.67;261582;1107;102099;-75
2021/06/04 02:17:33;;;;;;;14.53;11.70;;;;;;;9.35;69.80;100717.17;262542;1107;101476;-75
2021/06/04 02:22:39;;;;;;;16.35;11.38;;;;;;;9.27;70.11;100713.88;260451;1107;102960;-74
2021/06/04 02:28:00;;;;;;;9.20;8.23;;;;;;;9.21;69.74;100714.69;261383;1107;102949;-74
2021/06/04 02:33:15;;;;;;;16.90;9.78;;;;;;;9.07;70.60;100706.69;260892;1107;102963;-74
2021/06/04 02:38:26;;;;;;;20.50;12.18;;;;;;;9.01;70.54;100714.64;260707;1107;102972;-74
2021/06/04 02:43:41;;;;;;;18.58;12.43;;;;;;;9.09;69.96;100707.31;260331;1107;102962;-74
2021/06/04 02:48:49;;;;;;;15.33;10.83;;;;;;;9.14;70.15;100711.21;260668;1107;102991;-74
2021/06/04 02:54:07;;;;;;;20.28;10.28;;;;;;;9.02;70.60;100706.47;260113;1107;103036;-74
2021/06/04 02:59:24;;;;;;;16.45;10.35;;;;;;;8.90;70.24;100702.74;260706;1107;102958;-74
2021/06/04 03:04:31;;;;;;;19.60;13.70;;;;;;;8.89;70.77;100705.59;260715;1107;102978;-74
2021/06/04 03:09:42;;;;;;;15.85;12.25;;;;;;;8.98;70.61;100697.25;260105;1106;102949;-74
2021/06/04 03:14:50;;;;;;;15.98;11.58;;;;;;;9.09;71.68;100701.99;260563;1107;103043;-73
2021/06/04 03:19:54;;;;;;;12.65;9.43;;;;;;;9.19;70.88;100701.58;260967;1107;103361;-74
2021/06/04 03:25:05;;;;;;;18.40;12.63;;;;;;;9.32;71.37;100700.80;260540;1107;103048;-74
2021/06/04 03:30:13;;;;;;;13.40;11.70;;;;;;;9.45;70.91;100703.48;260429;1107;103011;-74
2021/06/04 03:35:19;;;;;;;19.03;11.75;;;;;;;9.49;70.54;100701.20;260331;1107;106927;-74
2021/06/04 03:40:27;;;;;;;16.30;12.40;;;;;;;9.70;71.26;100709.83;260469;1107;103064;-74
2021/06/04 03:45:38;;;;;;;11.53;9.15;;;;;;;10.03;71.41;100708.98;261408;1107;103001;-74
2021/06/04 03:50:46;;;;;;;18.25;12.38;;;;;;;10.25;70.68;100718.39;261321;1107;102959;-74
2021/06/04 03:55:52;;;;;;;17.08;12.28;;;;;;;10.60;70.80;100712.76;262104;1107;101492;-74
2021/06/04 04:01:01;;;;;;;16.18;13.00;;;;;;;10.88;70.45;100707.91;261126;1103;102979;-74
2021/06/04 04:06:05;;;;;;;16.30;11.98;;;;;;;11.17;70.89;100703.85;260387;1107;103051;-74
2021/06/04 04:11:10;;;;;;;14.00;10.95;;;;;;;11.37;70.81;100695.70;260708;1107;103091;-74
2021/06/04 04:16:15;;;;;;;13.85;10.85;;;;;;;12.09;70.40;100699.64;262456;1107;102555;-74
2021/06/04 04:21:20;;;;;;;16.50;11.08;;;;;;;13.73;68.78;100693.96;262662;1106;102955;-75
2021/06/04 04:26:30;;;;;;;13.80;12.15;;;;;;;17.84;64.62;100694.99;260430;1107;102996;-74
2021/06/04 04:31:41;;;;;;;19.15;12.08;;;;;;;17.98;63.66;100697.25;260038;1103;103088;-74
2021/06/04 04:36:51;;;;;;;12.95;10.25;;;;;;;20.68;59.44;100708.13;260805;1107;103113;-76
2021/06/04 04:41:57;;;;;;;16.83;10.03;;;;;;;22.33;57.06;100697.34;259804;1107;102968;-72
2021/06/04 04:47:10;;;;;;;11.48;8.35;;;;;;;22.58;54.96;100704.41;260744;1107;102911;-73
2021/06/04 04:52:15;;;;;;;12.30;9.65;;;;;;;22.07;54.94;100704.16;259912;1107;102964;-68
2021/06/04 04:57:21;;;;;;;8.53;7.50;;;;;;;21.73;54.32;100709.61;260605;1107;102984;-68
2021/06/04 05:02:26;;;;;;;6.10;5.50;;;;;;;22.39;52.01;100708.97;260489;1107;103374;-67
2021/06/04 05:07:30;;;;;;;6.45;5.18;;;;;;;26.00;48.23;100700.25;261078;1101;103062;-70
2021/06/04 05:12:36;;;;;;;7.10;5.20;;;;;;;29.62;44.04;100706.86;261481;1107;103088;-78
2021/06/04 05:17:42;;;;;;;6.78;5.08;;;;;;;32.34;40.11;100704.41;260305;1107;103043;-74
2021/06/04 05:22:48;;;;;;;3.53;3.23;;;;;;;34.48;37.21;100695.61;260633;1107;102941;-74
2021/06/04 05:27:55;;;;;;;8.20;3.75;;;;;;;36.40;33.65;100724.34;260482;1107;103056;-75
2021/06/04 05:33:01;;;;;;;4.10;3.60;;;;;;;37.18;31.44;100726.79;261042;1107;103517;-76
2021/06/04 05:38:08;;;;;;;3.33;3.03;;;;;;;38.31;30.00;100719.86;261403;1107;103037;-74
2021/06/04 05:43:17;;;;;;;7.10;2.73;;;;;;;39.21;27.15;100726.81;261018;1107;102964;-74
2021/06/04 05:48:22;;;;;;;5.63;3.20;;;;;;;39.90;26.56;100729.63;261644;1107;102957;-73
2021/06/04 05:53:31;;;;;;;3.53;2.35;;;;;;;40.42;25.21;100734.38;260997;1107;102970;-71
2021/06/04 05:58:37;;;;;;;4.45;3.80;;;;;;;40.35;23.26;100730.48;261551;1107;102957;-72
2021/06/04 06:03:42;;;;;;;7.48;2.60;;;;;;;40.80;23.12;100741.59;261508;1107;102939;-71
2021/06/04 06:08:48;;;;;;;4.05;2.35;;;;;;;41.56;22.30;100745.84;261437;1107;102950;-72
2021/06/04 06:13:56;;;;;;;2.65;1.98;;;;;;;42.54;21.49;100752.28;262650;1107;101018;-73
2021/06/04 06:19:00;;;;;;;3.80;2.60;;;;;;;42.53;20.98;100747.89;262584;1107;101409;-71
2021/06/04 06:24:05;;;;;;;4.75;2.68;;;;;;;42.22;20.10;100755.63;262518;1107;108242;-72
2021/06/04 06:29:11;;;;;;;3.15;2.20;;;;;;;42.43;20.41;100755.30;262101;1107;103078;-70
2021/06/04 06:34:18;;;;;;;3.03;2.33;;;;;;;42.62;19.84;100757.33;262275;1107;103011;-73
2021/06/04 06:39:28;;;;;;;2.33;2.13;;;;;;;42.24;18.89;100750.39;261296;1107;103158;-73
2021/06/04 06:44:32;;;;;;;2.90;2.30;;;;;;;41.28;19.60;100765.80;261476;1107;102937;-73
2021/06/04 06:49:36;;;;;;;3.10;2.58;;;;;;;41.02;19.20;100764.50;261704;1107;102909;-73
2021/06/04 06:54:41;;;;;;;2.65;2.15;;;;;;;39.83;19.23;100760.36;259807;1107;102975;-74
2021/06/04 06:59:46;;;;;;;4.33;2.30;;;;;;;39.57;19.68;100753.35;261331;1107;103183;-71
2021/06/04 07:04:50;;;;;;;4.93;2.75;;;;;;;39.28;20.01;100752.69;260247;1103;103278;-71
2021/06/04 07:09:55;;;;;;;2.58;2.38;;;;;;;39.60;20.17;100760.91;260392;1106;103003;-71
2021/06/04 07:14:58;;;;;;;2.68;2.48;;;;;;;39.75;20.72;100760.84;259999;1103;103049;-78
2021/06/04 07:20:03;;;;;;;2.75;2.03;;;;;;;39.53;20.27;100752.58;260015;1107;102960;-73
2021/06/04 07:25:14;;;;;;;7.08;2.40;;;;;;;38.41;20.66;100764.42;260083;1103;103117;-74
2021/06/04 07:30:25;;;;;;;2.35;1.88;;;;;;;37.65;22.03;100761.91;260530;1107;103064;-71
2021/06/04 07:35:31;;;;;;;4.85;3.10;;;;;;;36.85;21.36;100747.28;261462;1107;102968;-71
2021/06/04 07:40:37;;;;;;;2.40;2.20;;;;;;;36.15;21.89;100753.86;260931;1107;102972;-72
2021/06/04 07:45:44;;;;;;;3.20;2.30;;;;;;;35.49;23.06;100757.53;261442;1107;102415;-72
2021/06/04 07:50:51;;;;;;;2.35;2.15;;;;;;;34.80;23.48;100746.75;261733;1107;102502;-70
2021/06/04 07:55:57;;;;;;;2.13;2.03;;;;;;;34.24;23.65;100736.35;260880;1102;103034;-72
2021/06/04 08:01:04;;;;;;;3.45;2.45;;;;;;;33.55;23.91;100740.21;260774;1107;103056;-74
2021/06/04 08:06:09;;;;;;;4.13;2.20;;;;;;;33.11;24.22;100738.51;261487;1107;103087;-71
2021/06/04 08:11:22;;;;;;;2.23;2.10;;;;;;;32.61;25.54;100744.88;261200;1107;103035;-79
2021/06/04 08:16:28;;;;;;;2.53;2.33;;;;;;;32.55;25.02;100743.54;260122;1107;103078;-73
2021/06/04 08:21:40;;;;;;;2.70;2.50;;;;;;;32.09;24.52;100745.16;262674;1107;101197;-73
2021/06/04 08:26:44;;;;;;;1.70;1.60;;;;;;;31.98;24.30;100739.35;260410;1107;103061;-77
2021/06/04 08:31:49;;;;;;;2.45;2.25;;;;;;;31.73;24.22;100733.19;260212;1107;103060;-74
2021/06/04 08:36:54;;;;;;;2.18;1.95;;;;;;;31.75;24.87;100730.08;260028;1101;103104;-74
2021/06/04 08:42:06;;;;;;;3.33;2.60;;;;;;;31.63;24.65;100733.66;260722;1107;103120;-74
2021/06/04 08:47:18;;;;;;;3.53;1.60;;;;;;;31.53;23.99;100725.89;260214;1107;103014;-75
2021/06/04 08:52:48;;;;;;;2.55;2.45;;;;;;;30.17;25.07;100728.41;260340;1107;103036;-75
2021/06/04 08:57:59;;;;;;;6.33;2.63;;;;;;;29.36;25.81;100726.28;260038;1107;103059;-76
2021/06/04 09:03:27;;;;;;;3.37;3.13;;;;;;;29.31;26.56;100721.02;260839;1107;103088;-72
2021/06/04 09:08:35;;;;;;;3.45;2.50;;;;;;;29.82;27.17;100717.78;261324;1107;103064;-72
2021/06/04 09:13:40;;;;;;;3.10;2.70;;;;;;;29.68;25.95;100719.22;260578;1107;103408;-71
2021/06/04 09:18:55;;;;;;;3.33;3.00;;;;;;;29.50;27.60;100715.85;260343;1102;102981;-71
2021/06/04 09:24:04;;;;;;;3.35;3.08;;;;;;;29.96;28.01;100708.42;260533;1107;103247;-72
2021/06/04 09:29:25;;;;;;;3.45;3.18;;;;;;;30.33;26.55;100710.06;260754;1107;103040;-73
2021/06/04 09:34:36;;;;;;;3.05;2.85;;;;;;;30.73;27.70;100712.13;260722;1107;102977;-73
2021/06/04 09:39:49;;;;;;;3.73;2.50;;;;;;;30.57;27.23;100701.05;260368;1107;103461;-74
2021/06/04 09:45:13;;;;;;;8.50;3.53;;;;;;;30.51;27.20;100707.09;261544;1107;102989;-71
2021/06/04 09:50:23;;;;;;;2.98;2.75;;;;;;;30.63;26.77;100696.89;260828;1102;103585;-75
2021/06/04 09:55:30;;;;;;;2.87;2.67;;;;;;;30.54;26.15;100696.20;260940;1107;102955;-78
2021/06/04 10:00:38;;;;;;;3.10;2.53;;;;;;;30.48;26.91;100697.58;260490;1107;103309;-75
2021/06/04 10:05:45;;;;;;;2.58;2.45;;;;;;;30.67;25.99;100705.26;260150;1107;103075;-74
2021/06/04 10:11:08;;;;;;;3.08;2.85;;;;;;;30.74;26.92;100697.23;260183;1107;102971;-83
2021/06/04 10:16:40;;;;;;;2.80;2.63;;;;;;;30.58;26.16;100707.33;261209;1107;102958;-79
2021/06/04 10:21:46;;;;;;;5.05;2.83;;;;;;;30.78;26.33;100692.63;262296;1107;102847;-82
2021/06/04 10:26:59;;;;;;;2.80;2.60;;;;;;;30.83;26.17;100697.10;262451;1107;101361;-78
2021/06/04 10:32:04;;;;;;;;;;;;;;;30.91;25.91;100691.44;262632;1107;101278;-76
2021/06/04 10:37:23;;;;;;;3.43;2.50;;;;;;;30.46;24.32;100686.11;262257;1107;102982;-77
2021/06/04 10:42:55;;;;;;;2.50;2.30;;;;;;;30.03;25.92;100681.18;261913;1107;102997;-81
2021/06/04 10:48:27;;;;;;;3.23;2.83;;;;;;;29.53;25.54;100668.48;259809;1107;103094;-74
2021/06/04 10:54:01;;;;;;;2.80;2.57;;;;;;;28.68;26.00;100671.59;259996;1107;103084;-74
2021/06/04 10:59:18;;;;;;;7.90;3.40;;;;;;;28.48;26.63;100664.92;261230;1107;103728;-79
2021/06/04 11:04:51;;;;;;;3.65;3.08;;;;;;;28.49;26.32;100650.08;260217;1107;103014;-78
2021/06/04 11:10:05;;;;;;;6.30;3.20;;;;;;;28.38;25.88;100642.59;261143;1107;103042;-74
2021/06/04 11:15:25;;;;;;;3.25;2.95;;;;;;;28.66;26.29;100643.69;259866;1107;103163;-76
2021/06/04 11:20:36;;;;;;;2.83;1.90;;;;;;;28.95;26.61;100639.29;261484;1102;103043;-77
2021/06/04 11:25:40;;;;;;;3.03;2.83;;;;;;;29.08;27.53;100630.75;260148;1107;103075;-77
2021/06/04 11:30:50;;;;;;;3.30;2.93;;;;;;;29.26;26.92;100627.86;260848;1103;103094;-76
2021/06/04 11:36:10;;;;;;;1.68;1.68;;;;;;;28.92;26.15;100629.78;260817;1107;102968;-74
2021/06/04 11:41:41;;;;;;;4.83;2.65;;;;;;;28.61;26.28;100623.87;260630;1107;103058;-74
2021/06/04 11:47:12;;;;;;;4.30;2.20;;;;;;;28.05;25.75;100615.80;260711;1102;103097;-71
2021/06/04 11:52:31;;;;;;;2.60;2.48;;;;;;;27.93;25.70;100614.89;260072;1107;103078;-76
2021/06/04 11:57:49;;;;;;;7.43;3.00;;;;;;;28.06;25.56;100611.93;261249;1107;102934;-74
2021/06/04 12:02:55;;;;;;;6.28;2.65;;;;;;;28.03;24.63;100609.05;261246;1107;102960;-75
2021/06/04 12:08:23;;;;;;;9.20;2.53;;;;;;;28.22;26.35;100595.73;261359;1107;102961;-75
2021/06/04 12:13:38;;;;;;;3.10;2.80;;;;;;;28.02;26.87;100590.99;261671;1107;103358;-76
2021/06/04 12:19:06;;;;;;;5.33;2.20;;;;;;;28.05;27.36;100591.14;261736;1107;103230;-73
2021/06/04 12:24:19;;;;;;;4.58;2.08;;;;;;;28.10;25.82;100570.96;262576;1107;101623;-77
2021/06/04 12:29:24;;;;;;;3.85;2.80;;;;;;;28.08;25.67;100586.94;262391;1107;103920;-75
2021/06/04 12:39:44;;;;;;;2.50;2.30;;;;;;;28.08;26.49;100578.71;261939;1107;101313;-75
2021/06/04 12:45:27;;;;;;;3.58;2.90;;;;;;;28.18;25.80;100579.11;262301;1102;102963;-75
2021/06/04 12:50:32;;;;;;;6.85;2.15;;;;;;;28.29;25.89;100585.05;261723;1107;102392;-75
2021/06/04 12:55:39;;;;;;;11.23;3.08;;;;;;;28.44;27.75;100575.41;261732;1107;103254;-75
2021/06/04 13:00:45;;;;;;;3.00;2.80;;;;;;;28.71;27.92;100574.09;261847;1107;103060;-71
2021/06/04 13:05:52;;;;;;;3.28;2.98;;;;;;;28.88;26.56;100564.92;261589;1107;102968;-73
2021/06/04 13:11:01;;;;;;;5.00;2.77;;;;;;;28.68;26.39;100566.53;260365;1107;103110;-73
2021/06/04 13:16:23;;;;;;;3.50;3.20;;;;;;;28.34;26.63;100565.66;261058;1107;103256;-75
2021/06/04 13:21:38;;;;;;;3.43;2.55;;;;;;;27.91;26.41;100567.83;261016;1108;102991;-77
2021/06/04 13:26:50;;;;;;;5.40;3.00;;;;;;;27.47;26.83;100573.48;260240;1107;102995;-74
2021/06/04 13:31:58;;;;;;;3.15;2.93;;;;;;;27.24;27.07;100582.22;261369;1106;102944;-72
2021/06/04 13:37:06;;;;;;;4.50;2.83;;;;;;;27.01;27.24;100573.42;261276;1107;103064;-77
2021/06/04 13:42:30;;;;;;;3.03;2.80;;;;;;;26.82;27.16;100571.81;260482;1107;103048;-74
2021/06/04 13:47:47;;;;;;;3.40;3.20;;;;;;;26.64;27.68;100566.66;261398;1107;102997;-73
2021/06/04 13:53:18;;;;;;;3.65;3.15;;;;;;;26.70;28.02;100555.23;259936;1103;103096;-76
2021/06/04 13:58:29;;;;;;;5.08;2.78;;;;;;;26.75;28.30;100562.48;260999;1107;103115;-70
2021/06/04 14:03:37;;;;;;;6.48;3.40;;;;;;;26.70;27.66;100568.11;261058;1107;102968;-74
2021/06/04 14:08:56;;;;;;;6.23;3.18;;;;;;;26.79;28.55;100560.71;260619;1107;102963;-73
2021/06/04 14:14:06;;;;;;;3.90;3.10;;;;;;;26.88;28.59;100541.56;260882;1102;103023;-73
2021/06/04 14:19:54;;;;;;;6.88;3.20;;;;;;;27.07;28.60;100550.23;260365;1107;103087;-74
2021/06/04 14:24:58;;;;;;;3.38;3.08;;;;;;;27.19;29.35;100533.16;260041;1107;102943;-73
2021/06/04 14:30:05;;;;;;;6.43;2.95;;;;;;;27.16;29.45;100538.15;260998;1107;103040;-74
2021/06/04 14:35:15;;;;;;;7.68;3.23;;;;;;;27.27;27.91;100537.78;262555;1107;101379;-77
2021/06/04 14:40:24;;;;;;;3.28;3.08;;;;;;;27.33;27.74;100534.55;262578;1107;102802;-74
2021/06/04 14:45:29;;;;;;;4.90;3.13;;;;;;;27.20;27.91;100521.08;262452;1107;102956;-74
2021/06/04 14:50:33;;;;;;;;;;;;;;;27.05;27.69;100520.46;261534;1107;102965;-74
2021/06/04 14:55:37;;;;;;;3.78;3.38;;;;;;;26.89;28.40;100521.28;261312;1101;103094;-73
2021/06/04 15:00:42;;;;;;;5.35;3.33;;;;;;;26.89;28.10;100515.81;260969;1107;102960;-72
2021/06/04 15:05:47;;;;;;;6.28;4.25;;;;;;;26.79;29.55;100509.55;261332;1107;103057;-73
2021/06/04 15:10:51;;;;;;;9.03;3.83;;;;;;;26.65;28.31;100508.91;260397;1107;102966;-73
2021/06/04 15:15:58;;;;;;;3.90;3.70;;;;;;;26.55;29.48;100509.25;261745;1102;102943;-73
2021/06/04 15:21:07;;;;;;;3.05;2.80;;;;;;;26.36;30.33;100495.89;260729;1102;103049;-72
2021/06/04 15:26:14;;;;;;;7.13;3.40;;;;;;;26.37;29.49;100489.30;260711;1101;102975;-73
2021/06/04 15:31:21;;;;;;;3.13;2.93;;;;;;;26.53;29.57;100486.09;261035;1103;103039;-74
2021/06/04 15:36:28;;;;;;;3.23;2.95;;;;;;;26.60;30.23;100491.88;260762;1107;103010;-74
2021/06/04 15:41:34;;;;;;;5.10;3.05;;;;;;;26.43;30.17;100479.02;260647;1107;102938;-71
2021/06/04 15:46:40;;;;;;;2.65;2.45;;;;;;;26.23;29.75;100471.44;260096;1101;102996;-73
2021/06/04 15:51:45;;;;;;;3.57;3.07;;;;;;;25.97;29.89;100472.23;260606;1107;102936;-75
2021/06/04 15:56:49;;;;;;;3.58;3.28;;;;;;;25.82;30.82;100472.67;260169;1107;102962;-76
2021/06/04 16:01:53;;;;;;;3.70;3.43;;;;;;;25.71;31.83;100463.97;260062;1101;103014;-71
2021/06/04 16:06:59;;;;;;;3.75;3.40;;;;;;;25.65;31.21;100459.00;260419;1107;103085;-72
2021/06/04 16:12:06;;;;;;;6.10;3.08;;;;;;;25.49;31.09;100464.05;261118;1107;103062;-73
2021/06/04 16:17:10;;;;;;;3.75;3.45;;;;;;;25.36;32.07;100448.61;260709;1107;102942;-76
2021/06/04 16:22:15;;;;;;;6.15;3.85;;;;;;;25.22;32.69;100448.70;261353;1107;102993;-75
2021/06/04 16:27:20;;;;;;;4.63;2.90;;;;;;;25.07;32.20;100451.86;261701;1106;102941;-74
2021/06/04 16:32:27;;;;;;;3.88;3.58;;;;;;;24.94;33.22;100448.06;262511;1107;101334;-75
2021/06/04 16:37:32;;;;;;;3.93;2.93;;;;;;;24.85;34.54;100450.73;262158;1107;101403;-72
2021/06/04 16:42:36;;;;;;;2.80;2.60;;;;;;;24.75;33.89;100445.56;262439;1107;101408;-71
2021/06/04 16:47:41;;;;;;;4.20;3.13;;;;;;;24.71;34.04;100450.03;262075;1107;102990;-73
2021/06/04 16:52:45;;;;;;;3.10;2.90;;;;;;;24.62;35.36;100442.91;262597;1107;103128;-72
2021/06/04 16:57:50;;;;;;;3.40;3.10;;;;;;;24.55;35.79;100443.34;260418;1107;103592;-72
2021/06/04 17:02:56;;;;;;;3.83;3.53;;;;;;;24.45;37.14;100441.69;260934;1107;102940;-73
2021/06/04 17:08:02;;;;;;;7.90;3.83;;;;;;;24.31;37.47;100435.48;260734;1107;103458;-71
2021/06/04 17:13:11;;;;;;;5.40;3.43;;;;;;;24.14;38.79;100441.58;259699;1102;103062;-71
2021/06/04 17:18:15;;;;;;;7.43;4.27;;;;;;;23.97;39.32;100444.13;260930;1107;103104;-72
2021/06/04 17:23:23;;;;;;;4.10;3.58;;;;;;;23.79;39.65;100434.20;261574;1107;103064;-72
2021/06/04 17:28:30;;;;;;;6.28;3.63;;;;;;;23.63;40.09;100446.52;261140;1106;102973;-75
2021/06/04 17:33:35;;;;;;;5.15;3.63;;;;;;;23.47;41.22;100443.28;259965;1107;102958;-75
2021/06/04 17:38:39;;;;;;;4.30;3.88;;;;;;;23.30;41.83;100443.06;260809;1103;103447;-72
2021/06/04 17:43:44;;;;;;;5.25;4.80;;;;;;;23.13;42.53;100432.80;260026;1107;103051;-74
2021/06/04 17:48:50;;;;;;;4.60;4.05;;;;;;;22.97;43.04;100439.61;260230;1107;103187;-75
2021/06/04 17:53:55;;;;;;;6.70;4.23;;;;;;;22.81;43.52;100433.66;260193;1107;103825;-75
2021/06/04 17:59:00;;;;;;;4.90;4.50;;;;;;;22.67;44.42;100430.05;260686;1107;102974;-71
2021/06/04 18:04:04;;;;;;;4.03;3.70;;;;;;;22.45;44.85;100417.92;261361;1107;102961;-76
2021/06/04 18:09:09;;;;;;;6.93;4.45;;;;;;;22.22;46.21;100418.85;261076;1107;102960;-76
2021/06/04 18:14:14;;;;;;;5.33;3.73;;;;;;;22.06;46.97;100422.88;260163;1107;102963;-75
2021/06/04 18:19:19;;;;;;;;;;;;;;;21.89;47.34;100419.86;261324;1107;102994;-76
2021/06/04 18:24:23;;;;;;;4.28;3.65;;;;;;;21.68;48.20;100416.63;262325;1107;101502;-75
2021/06/04 18:29:27;;;;;;;3.70;3.43;;;;;;;21.32;49.16;100411.64;262177;1107;102991;-75
2021/06/04 18:34:36;;;;;;;4.10;3.70;;;;;;;21.10;49.94;100416.73;262395;1107;103198;-74
2021/06/04 18:39:41;;;;;;;3.85;3.48;;;;;;;21.00;50.75;100408.73;262520;1101;102024;-76
2021/06/04 18:44:46;;;;;;;4.03;3.68;;;;;;;20.86;50.98;100414.00;262626;1107;101311;-76
2021/06/04 18:49:52;;;;;;;4.55;4.25;;;;;;;20.75;51.48;100434.18;262061;1107;102961;-76
2021/06/04 18:54:57;;;;;;;31.33;5.83;;;;;;;20.57;51.65;100430.25;260903;1107;102962;-75
2021/06/04 19:00:12;;;;;;;9.08;4.95;;;;;;;20.38;52.15;100435.56;260912;1103;103265;-74
2021/06/04 19:05:20;;;;;;;7.68;5.45;;;;;;;20.14;52.08;100435.44;260432;1107;103065;-71
2021/06/04 19:10:32;;;;;;;5.00;4.67;;;;;;;19.97;52.98;100437.70;260283;1107;103043;-73
2021/06/04 19:15:37;;;;;;;5.03;4.15;;;;;;;19.80;53.22;100435.38;261034;1107;102985;-74
2021/06/04 19:20:42;;;;;;;;;;;;;;;19.52;52.81;100427.13;260439;1107;103004;-75
2021/06/04 19:25:49;;;;;;;3.58;3.28;;;;;;;19.08;52.58;100436.68;260735;1107;103093;-75
2021/06/04 19:30:56;;;;;;;4.63;4.03;;;;;;;18.76;53.67;100428.09;260120;1107;102962;-75
2021/06/04 19:36:04;;;;;;;8.70;5.63;;;;;;;18.55;54.35;100421.06;260313;1107;102986;-76
2021/06/04 19:41:13;;;;;;;11.98;7.50;;;;;;;18.53;54.67;100417.82;260338;1107;102957;-72
2021/06/04 19:46:20;;;;;;;7.97;6.40;;;;;;;18.55;55.09;100418.36;261392;1102;103085;-75
2021/06/04 19:51:30;;;;;;;7.18;6.50;;;;;;;18.48;54.98;100422.13;259938;1107;103139;-72
2021/06/04 19:56:36;;;;;;;10.40;6.85;;;;;;;18.40;54.85;100414.56;260457;1107;102953;-75
2021/06/04 20:01:42;;;;;;;6.73;5.75;;;;;;;18.34;56.02;100423.77;260031;1107;103008;-74
2021/06/04 20:06:48;;;;;;;6.33;5.60;;;;;;;18.09;56.23;100415.63;260997;1107;103014;-74
2021/06/04 20:11:53;;;;;;;12.63;6.98;;;;;;;17.88;57.39;100414.78;260218;1107;104492;-74
2021/06/04 20:16:58;;;;;;;11.33;6.75;;;;;;;17.71;57.21;100404.23;259973;1107;102970;-74
2021/06/04 20:22:07;;;;;;;12.18;7.05;;;;;;;17.66;57.30;100409.61;259993;1107;103098;-74
2021/06/04 20:27:12;;;;;;;6.90;5.63;;;;;;;17.67;57.79;100396.94;261321;1107;102954;-75
2021/06/04 20:32:18;;;;;;;6.20;5.60;;;;;;;17.59;58.06;100414.40;261846;1106;102617;-75
2021/06/04 20:37:24;;;;;;;15.97;8.13;;;;;;;17.65;58.69;100416.08;261198;1107;102943;-75
2021/06/04 20:42:32;;;;;;;11.63;7.75;;;;;;;17.76;58.99;100411.50;262664;1107;101517;-76
2021/06/04 20:47:37;;;;;;;14.00;8.40;;;;;;;17.75;59.32;100412.58;262680;1107;102738;-76
2021/06/04 20:52:42;;;;;;;11.45;8.95;;;;;;;17.75;59.66;100405.30;262159;1107;102606;-74
2021/06/04 20:57:48;;;;;;;10.50;7.80;;;;;;;17.59;59.60;100400.92;261383;1107;103009;-75
2021/06/04 21:02:53;;;;;;;12.73;6.25;;;;;;;17.45;60.15;100394.39;260272;1107;102957;-74
2021/06/04 21:08:00;;;;;;;7.23;6.53;;;;;;;17.33;60.75;100393.81;259993;1107;103129;-75
2021/06/04 21:13:06;;;;;;;9.30;7.45;;;;;;;17.23;60.92;100388.38;260650;1107;102984;-74
2021/06/04 21:18:14;;;;;;;18.03;10.48;;;;;;;17.25;61.09;100388.92;260053;1107;103084;-74
2021/06/04 21:23:20;;;;;;;18.60;9.80;;;;;;;17.31;61.47;100398.66;261406;1107;103102;-75
2021/06/04 21:28:24;;;;;;;15.65;11.53;;;;;;;17.37;61.67;100386.83;260290;1107;103103;-75
2021/06/04 21:33:33;;;;;;;27.83;10.93;;;;;;;17.40;61.37;100407.87;260311;1106;103141;-74
2021/06/04 21:38:39;;;;;;;19.50;12.45;;;;;;;17.41;60.74;100402.22;260553;1107;102981;-75
2021/06/04 21:43:46;;;;;;;18.50;10.40;;;;;;;17.44;61.35;100398.16;260307;1107;103071;-75
2021/06/04 21:48:50;;;;;;;;;;;;;;;17.39;61.49;100407.05;260158;1107;102971;-75
2021/06/04 21:53:57;;;;;;;10.58;9.10;;;;;;;17.32;61.71;100405.66;260663;1101;102945;-74
2021/06/04 21:59:02;;;;;;;13.00;10.18;;;;;;;17.32;61.37;100405.66;261386;1107;101812;-75
2021/06/04 22:04:10;;;;;;;17.60;10.70;;;;;;;17.34;61.35;100403.52;260993;1101;103095;-74
2021/06/04 22:09:17;;;;;;;17.45;10.08;;;;;;;17.22;61.29;100405.61;260223;1107;103070;-74
2021/06/04 22:14:24;;;;;;;11.50;10.30;;;;;;;17.15;60.77;100412.04;261111;1107;103065;-75
2021/06/04 22:19:30;;;;;;;13.00;11.18;;;;;;;17.07;61.26;100415.25;261308;1101;102936;-74
2021/06/04 22:24:35;;;;;;;17.23;10.83;;;;;;;17.03;61.35;100414.14;261519;1107;103194;-74
2021/06/04 22:29:40;;;;;;;11.03;10.00;;;;;;;17.03;61.22;100410.64;260791;1107;102989;-74
2021/06/04 22:34:45;;;;;;;14.70;10.10;;;;;;;17.06;61.38;100410.13;260236;1102;103126;-75
2021/06/04 22:39:50;;;;;;;16.28;10.28;;;;;;;17.08;61.26;100410.67;262418;1106;102835;-76
2021/06/04 22:45:00;;;;;;;12.55;9.70;;;;;;;17.09;61.26;100407.72;262603;1107;102671;-76
2021/06/04 22:50:08;;;;;;;15.20;10.65;;;;;;;17.11;61.69;100391.30;262229;1107;102877;-76
2021/06/04 22:55:28;;;;;;;13.18;9.43;;;;;;;17.04;62.51;100391.53;261649;1107;102937;-74
2021/06/04 23:00:39;;;;;;;18.23;11.73;;;;;;;16.99;62.20;100386.11;260671;1107;102939;-74
2021/06/04 23:05:45;;;;;;;16.77;11.00;;;;;;;16.82;62.47;100380.06;261174;1102;103043;-73
2021/06/04 23:10:53;;;;;;;18.28;12.30;;;;;;;16.74;63.11;100392.16;261528;1107;103107;-74
2021/06/04 23:15:58;;;;;;;12.95;8.58;;;;;;;16.64;63.31;100378.61;260294;1108;102972;-74
2021/06/04 23:21:04;;;;;;;12.13;10.50;;;;;;;16.53;63.53;100382.27;260402;1101;103001;-74
2021/06/04 23:26:20;;;;;;;11.98;10.58;;;;;;;16.42;63.92;100381.39;260513;1107;103024;-74